createdAt,value
2023-10-24T00:00:59.843Z,2.97
2023-10-24T00:03:26.368Z,3.55
2023-10-24T00:05:53.284Z,3.47
2023-10-24T00:08:19.736Z,4.00
2023-10-24T00:10:46.683Z,3.60
2023-10-24T00:13:13.593Z,4.40
2023-10-24T00:15:40.031Z,4.10
2023-10-24T00:18:06.948Z,4.03
2023-10-24T00:20:33.386Z,4.10
2023-10-24T00:22:59.833Z,4.37
2023-10-24T00:25:26.305Z,4.68
2023-10-24T00:27:52.807Z,5.18
2023-10-24T00:30:19.809Z,4.88
2023-10-24T00:32:50.991Z,4.63
2023-10-24T00:35:18.738Z,4.60
2023-10-24T00:37:45.290Z,5.55
2023-10-24T00:40:12.342Z,5.90
2023-10-24T00:42:38.835Z,6.30
2023-10-24T00:45:06.893Z,6.25
2023-10-24T00:47:34.183Z,6.90
2023-10-24T00:50:00.806Z,6.28
2023-10-24T00:52:27.744Z,7.75
2023-10-24T00:54:54.795Z,7.18
2023-10-24T00:57:21.782Z,7.28
2023-10-24T00:59:48.710Z,7.90
2023-10-24T01:02:15.449Z,7.88
2023-10-24T01:04:42.163Z,7.93
2023-10-24T01:07:08.853Z,8.57
2023-10-24T01:09:35.662Z,8.55
2023-10-24T01:12:03.089Z,7.87
2023-10-24T01:14:29.639Z,8.55
2023-10-24T01:16:56.371Z,9.40
2023-10-24T01:19:23.028Z,8.13
2023-10-24T01:21:49.580Z,8.48
2023-10-24T01:24:18.079Z,9.60
2023-10-24T01:26:45.266Z,9.80
2023-10-24T01:29:11.902Z,9.93
2023-10-24T01:31:38.685Z,9.40
2023-10-24T01:34:05.462Z,9.20
2023-10-24T01:36:31.994Z,9.10
2023-10-24T01:38:58.418Z,9.10
2023-10-24T01:41:24.911Z,9.35
2023-10-24T01:43:53.009Z,9.85
2023-10-24T01:46:19.610Z,9.63
2023-10-24T01:48:46.140Z,9.57
2023-10-24T01:51:12.636Z,10.05
2023-10-24T01:53:39.067Z,9.55
2023-10-24T01:56:05.772Z,9.40
2023-10-24T01:58:32.256Z,10.07
2023-10-24T02:00:58.778Z,8.90
2023-10-24T02:03:25.292Z,9.60
2023-10-24T02:05:51.752Z,9.32
2023-10-24T02:08:18.289Z,9.02
2023-10-24T02:10:45.027Z,8.13
2023-10-24T02:13:12.007Z,8.83
2023-10-24T02:15:38.687Z,8.75
2023-10-24T02:18:05.327Z,8.43
2023-10-24T02:20:31.861Z,8.27
2023-10-24T02:22:58.409Z,8.60
2023-10-24T02:25:24.930Z,8.10
2023-10-24T02:27:53.656Z,8.57
2023-10-24T02:30:20.162Z,7.88
2023-10-24T02:32:46.770Z,7.05
2023-10-24T02:35:13.308Z,7.32
2023-10-24T02:37:39.881Z,7.33
2023-10-24T02:40:09.058Z,7.72
2023-10-24T02:42:35.991Z,6.82
2023-10-24T02:45:02.619Z,6.85
2023-10-24T02:47:29.313Z,6.18
2023-10-24T02:49:56.307Z,5.90
2023-10-24T02:52:22.881Z,6.68
2023-10-24T02:54:50.214Z,6.53
2023-10-24T02:57:17.604Z,5.97
2023-10-24T02:59:44.135Z,6.30
2023-10-24T03:02:10.607Z,5.70
2023-10-24T03:04:37.188Z,5.45
2023-10-24T03:07:04.179Z,6.20
2023-10-24T03:09:30.760Z,5.57
2023-10-24T03:11:57.218Z,5.57
2023-10-24T03:14:24.101Z,5.73
2023-10-24T03:16:50.632Z,5.05
2023-10-24T03:19:17.337Z,4.93
2023-10-24T03:21:43.859Z,5.82
2023-10-24T03:24:10.809Z,5.30
2023-10-24T03:26:37.610Z,5.60
2023-10-24T03:29:04.198Z,4.32
2023-10-24T03:31:31.537Z,4.78
2023-10-24T03:33:58.062Z,5.22
2023-10-24T03:36:24.829Z,5.22
2023-10-24T03:38:51.269Z,4.43
2023-10-24T03:41:18.042Z,5.35
2023-10-24T03:43:50.457Z,4.72
2023-10-24T03:46:17.151Z,4.80
2023-10-24T03:48:43.802Z,5.00
2023-10-24T03:51:10.433Z,4.63
2023-10-24T03:53:36.908Z,4.20
2023-10-24T03:56:03.364Z,4.88
2023-10-24T03:58:30.544Z,4.97
2023-10-24T04:01:05.440Z,5.25
2023-10-24T04:03:32.817Z,4.97
2023-10-24T04:05:59.356Z,4.93
2023-10-24T04:08:25.787Z,5.03
2023-10-24T04:10:52.265Z,4.88
2023-10-24T04:13:18.770Z,4.68
2023-10-24T04:15:45.246Z,4.70
2023-10-24T04:18:11.714Z,4.63
2023-10-24T04:20:42.973Z,5.30
2023-10-24T04:23:15.394Z,5.63
2023-10-24T04:25:41.881Z,5.05
2023-10-24T04:28:08.399Z,6.23
2023-10-24T04:30:35.069Z,5.85
2023-10-24T04:33:01.888Z,6.93
2023-10-24T04:35:28.520Z,6.15
2023-10-24T04:37:55.427Z,5.97
2023-10-24T04:40:22.031Z,6.87
2023-10-24T04:42:51.398Z,5.85
2023-10-24T04:45:18.065Z,6.97
2023-10-24T04:47:44.568Z,6.60
2023-10-24T04:50:12.248Z,7.20
2023-10-24T04:52:38.796Z,6.60
2023-10-24T04:55:06.112Z,6.40
2023-10-24T04:57:32.986Z,7.25
2023-10-24T04:59:59.991Z,6.95
2023-10-24T05:02:26.574Z,6.28
2023-10-24T05:04:53.096Z,6.70
2023-10-24T05:07:19.605Z,6.32
2023-10-24T05:09:46.121Z,6.65
2023-10-24T05:12:12.521Z,6.18
2023-10-24T05:14:39.014Z,6.55
2023-10-24T05:17:06.098Z,5.53
2023-10-24T05:19:32.878Z,6.90
2023-10-24T05:21:59.325Z,6.50
2023-10-24T05:24:25.744Z,5.93
2023-10-24T05:26:52.189Z,6.10
2023-10-24T05:29:18.617Z,5.87
2023-10-24T05:31:45.145Z,6.07
2023-10-24T05:34:11.834Z,6.65
2023-10-24T05:36:38.507Z,6.70
2023-10-24T05:39:04.992Z,7.25
2023-10-24T05:41:31.433Z,6.73
2023-10-24T05:43:57.935Z,6.47
2023-10-24T05:46:24.550Z,6.55
2023-10-24T05:48:51.096Z,7.07
2023-10-24T05:51:25.245Z,7.10
2023-10-24T05:53:51.748Z,7.10
2023-10-24T05:56:18.285Z,7.10
2023-10-24T05:58:45.824Z,6.95
2023-10-24T06:01:12.996Z,7.15
2023-10-24T06:03:39.734Z,6.68
2023-10-24T06:06:06.471Z,6.97
2023-10-24T06:08:32.867Z,7.45
2023-10-24T06:11:01.068Z,7.30
2023-10-24T06:13:28.389Z,6.82
2023-10-24T06:15:55.027Z,7.22
2023-10-24T06:18:23.256Z,6.70
2023-10-24T06:20:51.653Z,6.50
2023-10-24T06:23:18.275Z,6.70
2023-10-24T06:25:44.770Z,6.75
2023-10-24T06:28:12.924Z,6.60
2023-10-24T06:30:40.605Z,5.90
2023-10-24T06:33:07.115Z,6.47
2023-10-24T06:35:33.607Z,5.82
2023-10-24T06:38:00.138Z,5.13
2023-10-24T06:40:26.662Z,5.82
2023-10-24T06:42:53.188Z,5.87
2023-10-24T06:45:19.723Z,5.40
2023-10-24T06:47:47.071Z,6.07
2023-10-24T06:50:13.749Z,6.47
2023-10-24T06:52:43.261Z,6.20
2023-10-24T06:55:10.429Z,6.30
2023-10-24T06:57:37.118Z,5.45
2023-10-24T07:00:04.176Z,6.13
2023-10-24T07:02:32.433Z,5.60
2023-10-24T07:04:59.166Z,5.38
2023-10-24T07:07:26.808Z,5.70
2023-10-24T07:09:53.440Z,6.07
2023-10-24T07:12:20.089Z,6.10
2023-10-24T07:14:46.606Z,5.90
2023-10-24T07:17:13.070Z,5.15
2023-10-24T07:19:39.553Z,6.23
2023-10-24T07:22:05.986Z,5.78
2023-10-24T07:24:32.544Z,5.75
2023-10-24T07:26:59.154Z,6.40
2023-10-24T07:29:27.937Z,5.93
2023-10-24T07:31:54.585Z,5.90
2023-10-24T07:34:21.267Z,6.10
2023-10-24T07:36:48.770Z,6.00
2023-10-24T07:39:15.739Z,6.57
2023-10-24T07:41:42.243Z,6.55
2023-10-24T07:44:08.844Z,5.50
2023-10-24T07:46:35.380Z,5.85
2023-10-24T07:49:01.929Z,6.45
2023-10-24T07:51:32.664Z,7.03
2023-10-24T07:53:59.248Z,7.68
2023-10-24T07:56:25.675Z,7.00
2023-10-24T07:58:52.226Z,6.45
2023-10-24T08:01:22.121Z,7.32
2023-10-24T08:03:48.728Z,7.60
2023-10-24T08:06:16.503Z,7.15
2023-10-24T08:08:44.384Z,7.47
2023-10-24T08:11:11.230Z,7.30
2023-10-24T08:13:37.682Z,8.40
2023-10-24T08:16:04.405Z,8.32
2023-10-24T08:18:31.086Z,8.05
2023-10-24T08:20:57.773Z,7.90
2023-10-24T08:23:24.270Z,7.90
2023-10-24T08:25:50.792Z,8.55
2023-10-24T08:28:17.278Z,8.15
2023-10-24T08:30:43.797Z,7.32
2023-10-24T08:33:10.368Z,7.80
2023-10-24T08:35:37.051Z,7.57
2023-10-24T08:38:04.973Z,7.60
2023-10-24T08:40:31.672Z,7.22
2023-10-24T08:42:58.182Z,7.60
2023-10-24T08:45:25.707Z,7.40
2023-10-24T08:47:55.059Z,7.25
2023-10-24T08:50:21.750Z,7.63
2023-10-24T08:52:48.232Z,7.65
2023-10-24T08:55:14.798Z,6.93
2023-10-24T08:57:43.241Z,8.00
2023-10-24T09:00:14.710Z,7.15
2023-10-24T09:02:46.084Z,7.45
2023-10-24T09:05:16.869Z,7.45
2023-10-24T09:07:43.548Z,6.68
2023-10-24T09:10:10.579Z,7.47
2023-10-24T09:12:40.179Z,6.88
2023-10-24T09:15:10.267Z,6.95
2023-10-24T09:17:37.324Z,7.05
2023-10-24T09:20:05.800Z,7.32
2023-10-24T09:22:33.396Z,7.60
2023-10-24T09:25:03.080Z,7.30
2023-10-24T09:27:29.889Z,7.25
2023-10-24T09:29:56.434Z,5.78
2023-10-24T09:32:22.916Z,6.45
2023-10-24T09:34:50.158Z,5.87
2023-10-24T09:37:17.511Z,6.50
2023-10-24T09:39:58.679Z,5.85
2023-10-24T09:42:34.604Z,6.30
2023-10-24T09:45:07.006Z,6.20
2023-10-24T09:47:35.142Z,6.10
2023-10-24T09:50:03.433Z,5.78
2023-10-24T09:52:30.933Z,5.40
2023-10-24T09:54:59.584Z,5.72
2023-10-24T09:57:27.698Z,5.20
2023-10-24T09:59:56.355Z,4.87
2023-10-24T10:02:27.352Z,4.45
2023-10-24T10:04:54.734Z,5.35
2023-10-24T10:07:25.458Z,4.53
2023-10-24T10:09:53.102Z,4.90
2023-10-24T10:12:19.841Z,4.47
2023-10-24T10:15:24.131Z,4.07
2023-10-24T10:17:56.630Z,4.40
2023-10-24T10:21:00.470Z,4.43
2023-10-24T10:23:32.762Z,5.43
2023-10-24T10:26:06.959Z,4.33
2023-10-24T10:28:48.513Z,4.78
2023-10-24T10:32:38.553Z,4.40
2023-10-24T10:34:35.737Z,4.80
2023-10-24T10:37:03.014Z,4.97
2023-10-24T10:39:30.278Z,4.27
2023-10-24T10:41:57.623Z,4.82
2023-10-24T10:44:39.886Z,5.20
2023-10-24T10:47:12.559Z,4.47
2023-10-24T10:49:58.093Z,4.57
2023-10-24T10:52:52.302Z,4.70
2023-10-24T10:55:44.343Z,4.93
2023-10-24T10:58:25.009Z,5.00
2023-10-24T11:01:01.387Z,4.82
2023-10-24T11:03:42.427Z,4.85
2023-10-24T11:06:16.872Z,4.30
2023-10-24T11:09:07.792Z,4.07
2023-10-24T11:11:34.755Z,4.20
2023-10-24T11:14:27.563Z,4.57
2023-10-24T11:16:54.479Z,4.20
2023-10-24T11:19:25.888Z,4.83
2023-10-24T11:21:54.212Z,4.35
2023-10-24T11:24:22.819Z,4.20
2023-10-24T11:26:55.896Z,3.95
2023-10-24T11:29:22.740Z,3.80
2023-10-24T11:31:51.762Z,4.10
2023-10-24T11:34:19.690Z,3.92
2023-10-24T11:36:47.057Z,3.78
2023-10-24T11:39:15.336Z,4.18
2023-10-24T11:41:43.215Z,3.75
2023-10-24T11:44:13.272Z,3.63
2023-10-24T11:46:40.920Z,3.70
2023-10-24T11:49:09.313Z,4.10
2023-10-24T11:51:37.583Z,3.75
2023-10-24T11:54:05.584Z,4.43
2023-10-24T11:56:32.916Z,3.87
2023-10-24T11:59:00.831Z,3.88
2023-10-24T12:01:32.530Z,3.92
2023-10-24T12:04:01.477Z,3.63
2023-10-24T12:06:29.229Z,4.07
2023-10-24T12:08:56.569Z,3.60
2023-10-24T12:11:23.681Z,3.83
2023-10-24T12:13:50.751Z,3.40
2023-10-24T12:16:17.589Z,3.72
2023-10-24T12:18:45.057Z,3.75
2023-10-24T12:21:13.210Z,3.80
2023-10-24T12:23:40.135Z,3.53
2023-10-24T12:26:06.941Z,3.28
2023-10-24T12:28:34.215Z,3.88
2023-10-24T12:31:01.138Z,3.80
2023-10-24T12:33:29.463Z,3.43
2023-10-24T12:36:01.019Z,3.47
2023-10-24T12:38:28.946Z,3.78
2023-10-24T12:40:55.836Z,3.50
2023-10-24T12:43:22.460Z,3.45
2023-10-24T12:45:49.090Z,3.07
2023-10-24T12:48:17.728Z,3.10
2023-10-24T12:50:45.733Z,2.55
2023-10-24T12:53:12.294Z,3.10
2023-10-24T12:55:39.557Z,2.40
2023-10-24T12:58:06.049Z,2.43
2023-10-24T13:00:33.181Z,2.45
2023-10-24T13:03:07.867Z,2.60
2023-10-24T13:05:42.182Z,2.47
2023-10-24T13:08:08.922Z,2.53
2023-10-24T13:10:35.698Z,1.63
2023-10-24T13:13:03.224Z,1.60
2023-10-24T13:15:29.889Z,1.80
2023-10-24T13:17:56.474Z,1.75
2023-10-24T13:20:22.964Z,1.92
2023-10-24T13:22:49.902Z,1.90
2023-10-24T13:25:16.669Z,2.05
2023-10-24T13:27:43.157Z,2.40
2023-10-24T13:30:10.037Z,2.30
2023-10-24T13:32:36.714Z,2.40
2023-10-24T13:37:32.853Z,2.55
2023-10-24T13:39:59.374Z,2.30
2023-10-24T13:42:25.825Z,2.15
2023-10-24T13:44:52.440Z,1.90
2023-10-24T13:47:18.963Z,2.20
2023-10-24T13:49:45.583Z,2.10
2023-10-24T13:52:14.823Z,2.42
2023-10-24T13:54:41.487Z,2.10
2023-10-24T13:57:08.349Z,2.10
2023-10-24T13:59:35.026Z,2.20
2023-10-24T14:02:01.607Z,2.00
2023-10-24T14:04:28.239Z,1.63
2023-10-24T14:06:56.362Z,1.95
2023-10-24T14:09:22.850Z,1.67
2023-10-24T14:11:49.372Z,1.83
2023-10-24T14:14:17.277Z,1.98
2023-10-24T14:16:44.245Z,1.95
2023-10-24T14:19:11.462Z,2.00
2023-10-24T14:21:37.960Z,1.65
2023-10-24T14:24:04.826Z,1.60
2023-10-24T14:26:31.746Z,1.90
2023-10-24T14:28:58.526Z,1.80
2023-10-24T14:31:25.484Z,1.33
2023-10-24T14:33:51.988Z,1.60
2023-10-24T14:36:18.595Z,1.87
2023-10-24T14:38:45.156Z,1.80
2023-10-24T14:41:11.721Z,1.98
2023-10-24T14:43:38.911Z,1.75
2023-10-24T14:46:05.698Z,1.85
2023-10-24T14:48:34.952Z,1.60
2023-10-24T14:51:04.192Z,1.80
2023-10-24T14:53:30.676Z,2.20
2023-10-24T14:55:57.379Z,1.88
2023-10-24T14:58:24.345Z,1.83
2023-10-24T15:00:51.032Z,1.80
2023-10-24T15:03:17.950Z,2.03
2023-10-24T15:05:44.714Z,2.10
2023-10-24T15:08:11.655Z,2.00
2023-10-24T15:10:38.422Z,2.00
2023-10-24T15:13:05.061Z,2.00
2023-10-24T15:15:31.500Z,2.08
2023-10-24T15:17:58.151Z,2.00
2023-10-24T15:20:24.752Z,1.95
2023-10-24T15:22:51.385Z,2.10
2023-10-24T15:25:19.316Z,1.83
2023-10-24T15:27:46.635Z,1.90
2023-10-24T15:30:17.442Z,2.33
2023-10-24T15:32:43.952Z,2.80
2023-10-24T15:35:11.475Z,2.60
2023-10-24T15:37:38.214Z,3.33
2023-10-24T15:40:06.050Z,2.28
2023-10-24T15:42:34.935Z,2.80
2023-10-24T15:45:04.816Z,3.08
2023-10-24T15:47:39.295Z,2.53
2023-10-24T15:50:08.261Z,2.90
2023-10-24T15:52:35.151Z,2.60
2023-10-24T15:55:17.431Z,2.30
2023-10-24T15:57:59.191Z,2.60
2023-10-24T16:00:29.123Z,2.00
2023-10-24T16:02:55.794Z,1.80
2023-10-24T16:05:24.240Z,1.77
2023-10-24T16:07:50.771Z,1.70
2023-10-24T16:10:17.392Z,1.00
2023-10-24T16:12:43.904Z,0.88
2023-10-24T16:15:11.566Z,0.60
2023-10-24T16:17:39.875Z,0.85
2023-10-24T16:20:07.447Z,0.55
2023-10-24T16:22:33.954Z,0.57
2023-10-24T16:25:00.475Z,0.50
2023-10-24T16:27:27.042Z,0.60
2023-10-24T16:29:53.682Z,0.47
2023-10-24T16:32:20.615Z,0.40
2023-10-24T16:34:47.285Z,0.60
2023-10-24T16:37:13.785Z,0.50
2023-10-24T16:39:40.289Z,0.63
2023-10-24T16:42:06.907Z,0.65
2023-10-24T16:44:34.629Z,0.70
2023-10-24T16:47:01.287Z,0.47
2023-10-24T16:49:29.392Z,0.60
2023-10-24T16:51:57.448Z,0.70
2023-10-24T16:54:24.098Z,0.60
2023-10-24T16:56:50.865Z,0.60
2023-10-24T16:59:17.508Z,0.60
2023-10-24T17:01:44.200Z,1.02
2023-10-24T17:04:10.817Z,0.60
2023-10-24T17:06:38.047Z,0.98
2023-10-24T17:09:06.620Z,1.23
2023-10-24T17:11:33.370Z,1.77
2023-10-24T17:14:00.024Z,1.92
2023-10-24T17:16:26.574Z,2.50
2023-10-24T17:18:53.144Z,2.35
2023-10-24T17:21:20.045Z,2.15
2023-10-24T17:23:47.364Z,2.00
2023-10-24T17:26:15.517Z,1.95
2023-10-24T17:28:42.058Z,1.97
2023-10-24T17:31:08.761Z,2.05
2023-10-24T17:33:35.480Z,2.03
2023-10-24T17:36:03.680Z,1.85
2023-10-24T17:38:31.252Z,1.90
2023-10-24T17:40:59.428Z,2.10
2023-10-24T17:43:26.269Z,2.00
2023-10-24T17:45:53.086Z,2.63
2023-10-24T17:48:19.605Z,2.70
2023-10-24T17:50:46.164Z,2.42
2023-10-24T17:53:12.741Z,2.80
2023-10-24T17:55:40.824Z,2.47
2023-10-24T17:58:07.775Z,2.45
2023-10-24T18:00:35.868Z,2.90
2023-10-24T18:03:02.844Z,4.20
2023-10-24T18:05:30.220Z,4.10
2023-10-24T18:07:56.912Z,3.70
2023-10-24T18:10:23.912Z,3.42
2023-10-24T18:12:51.391Z,3.30
2023-10-24T18:15:18.672Z,3.75
2023-10-24T18:17:45.502Z,2.73
2023-10-24T18:20:12.782Z,3.00
2023-10-24T18:22:39.888Z,3.17
2023-10-24T18:25:10.541Z,2.80
2023-10-24T18:27:37.603Z,3.38
2023-10-24T18:30:06.376Z,3.43
2023-10-24T18:32:34.438Z,3.70
2023-10-24T18:35:00.951Z,3.70
2023-10-24T18:37:27.391Z,3.75
2023-10-24T18:39:54.246Z,3.60
2023-10-24T18:42:26.308Z,3.00
2023-10-24T18:44:53.775Z,3.42
2023-10-24T18:47:20.298Z,3.25
2023-10-24T18:49:48.404Z,3.80
2023-10-24T18:52:15.334Z,2.92
2023-10-24T18:54:43.083Z,2.80
2023-10-24T18:57:10.291Z,2.53
2023-10-24T18:59:36.993Z,2.92
2023-10-24T19:02:03.704Z,3.00
2023-10-24T19:04:30.259Z,3.15
2023-10-24T19:06:56.701Z,2.30
2023-10-24T19:09:23.225Z,2.72
2023-10-24T19:11:50.071Z,3.03
2023-10-24T19:14:17.619Z,2.35
2023-10-24T19:16:44.487Z,2.13
2023-10-24T19:19:11.727Z,2.43
2023-10-24T19:21:38.805Z,2.53
2023-10-24T19:24:05.831Z,2.15
2023-10-24T19:26:32.534Z,2.55
2023-10-24T19:28:59.279Z,2.47
2023-10-24T19:31:26.040Z,2.40
2023-10-24T19:33:52.700Z,2.28
2023-10-24T19:36:22.044Z,2.60
2023-10-24T19:38:48.712Z,2.90
2023-10-24T19:41:15.763Z,2.78
2023-10-24T19:43:42.487Z,2.77
2023-10-24T19:46:09.812Z,2.85
2023-10-24T19:48:37.982Z,2.60
2023-10-24T19:51:05.368Z,2.35
2023-10-24T19:53:38.270Z,3.22
2023-10-24T19:56:06.765Z,2.33
2023-10-24T19:58:37.078Z,2.10
2023-10-24T20:01:05.912Z,3.17
2023-10-24T20:03:32.793Z,2.67
2023-10-24T20:06:01.477Z,2.80
2023-10-24T20:08:28.689Z,2.70
2023-10-24T20:11:36.544Z,2.50
2023-10-24T20:13:42.357Z,2.17
2023-10-24T20:16:12.893Z,2.40
2023-10-24T20:18:39.656Z,2.47
2023-10-24T20:21:06.514Z,2.87
2023-10-24T20:23:33.390Z,2.60
2023-10-24T20:26:00.346Z,2.90
2023-10-24T20:28:26.826Z,2.50
2023-10-24T20:30:53.343Z,2.67
2023-10-24T20:33:19.824Z,2.67
2023-10-24T20:35:46.267Z,2.58
2023-10-24T20:38:12.723Z,2.45
2023-10-24T20:40:39.494Z,2.72
2023-10-24T20:43:06.077Z,3.17
2023-10-24T20:45:32.717Z,2.33
2023-10-24T20:47:59.320Z,2.40
2023-10-24T20:50:26.680Z,2.75
2023-10-24T20:52:53.184Z,2.70
2023-10-24T20:55:19.697Z,2.58
2023-10-24T20:57:46.364Z,2.60
2023-10-24T21:00:13.236Z,2.40
2023-10-24T21:02:39.779Z,2.83
2023-10-24T21:05:06.576Z,2.50
2023-10-24T21:07:33.964Z,2.40
2023-10-24T21:10:00.504Z,2.87
2023-10-24T21:12:27.097Z,2.40
2023-10-24T21:14:53.778Z,2.47
2023-10-24T21:17:20.629Z,2.22
2023-10-24T21:19:47.176Z,2.10
2023-10-24T21:22:13.782Z,2.07
2023-10-24T21:24:40.318Z,1.90
2023-10-24T21:27:06.910Z,2.15
2023-10-24T21:29:33.447Z,2.35
2023-10-24T21:32:00.020Z,2.30
2023-10-24T21:34:26.568Z,2.00
2023-10-24T21:36:53.076Z,2.38
2023-10-24T21:39:20.706Z,2.35
2023-10-24T21:41:47.231Z,2.10
2023-10-24T21:44:13.768Z,2.35
2023-10-24T21:46:40.414Z,2.30
2023-10-24T21:49:08.328Z,1.88
2023-10-24T21:51:35.085Z,2.08
2023-10-24T21:54:01.678Z,1.80
2023-10-24T21:56:28.371Z,2.22
2023-10-24T21:58:54.866Z,2.70
2023-10-24T22:01:22.076Z,2.03
2023-10-24T22:03:48.916Z,2.15
2023-10-24T22:06:15.599Z,2.33
2023-10-24T22:08:42.112Z,2.33
2023-10-24T22:11:08.795Z,2.50
2023-10-24T22:13:35.388Z,2.60
2023-10-24T22:16:02.499Z,2.75
2023-10-24T22:18:29.243Z,2.42
2023-10-24T22:20:56.523Z,2.30
2023-10-24T22:23:23.381Z,2.60
2023-10-24T22:25:51.218Z,2.35
2023-10-24T22:28:17.702Z,2.08
2023-10-24T22:30:44.218Z,2.53
2023-10-24T22:33:10.868Z,2.95
2023-10-24T22:35:38.436Z,2.13
2023-10-24T22:38:04.942Z,2.50
2023-10-24T22:40:31.458Z,2.30
2023-10-24T22:42:58.360Z,2.50
2023-10-24T22:45:25.946Z,2.75
2023-10-24T22:47:53.179Z,2.60
2023-10-24T22:50:21.893Z,2.70
2023-10-24T22:52:48.932Z,2.90
2023-10-24T22:55:15.542Z,2.65
2023-10-24T22:57:42.632Z,2.70
2023-10-24T23:00:10.000Z,2.80
2023-10-24T23:02:36.603Z,2.55
2023-10-24T23:05:03.298Z,3.58
2023-10-24T23:07:30.485Z,3.17
2023-10-24T23:09:58.736Z,2.90
2023-10-24T23:12:25.258Z,3.20
2023-10-24T23:14:51.705Z,2.80
2023-10-24T23:17:18.149Z,3.53
2023-10-24T23:19:44.729Z,3.15
2023-10-24T23:22:11.299Z,3.45
2023-10-24T23:24:37.823Z,3.37
2023-10-24T23:27:04.734Z,3.30
2023-10-24T23:29:31.244Z,3.75
2023-10-24T23:31:57.733Z,3.42
2023-10-24T23:34:24.366Z,3.15
2023-10-24T23:36:50.955Z,3.10
2023-10-24T23:39:17.943Z,3.88
2023-10-24T23:41:44.423Z,4.30
2023-10-24T23:44:10.886Z,4.30
2023-10-24T23:46:37.441Z,3.47
2023-10-24T23:49:04.073Z,3.90
2023-10-24T23:51:30.676Z,4.05
2023-10-24T23:53:57.266Z,4.10
2023-10-24T23:56:23.751Z,3.67
2023-10-24T23:58:50.224Z,3.90
